Terminal Aerodrome Forecast
Issued by NWS

Home | Current Version | Previous Version | Graphics & Text | Print | Product List | Glossary On
Versions: 1 2 3 4 5 6 7 8 9 10 11 12 13 14 15 16 17 18 19 20 21 22 23 24 25 26 27
000
FTUS43 KLOT 191503 AAB
TAFMDW
TAF AMD
KMDW 191503Z 1915/2012 16005KT 4SM BR BKN006 OVC150
     FM191600 17005KT 5SM BR FEW010 OVC150
     FM191700 15008KT 6SM BR BKN100
     FM192000 11009KT P6SM OVC035
     FM192300 10007KT 3SM -RA SCT010 OVC025
     FM200400 09007KT 2SM -RA BR SCT004 OVC007
     FM200600 08007KT 1 1/2SM -RA BR OVC004=

USA.gov is the U.S. government's official web portal to all federal, state and local government web resources and services.